Etusivu
METAR-TAF:

METAR-TAF

Lentoasemat :

Keene, New Hampshire, Yhdysvallat

Leveyspiiri: 42-54N, Pituuspiiri: 072-16W, korkeus merenpinnasta: 149 m

Tämänhetkinen sää

Tämä raportti tehtiin 1 tunti ja 2 minuuttia sitten, kello 00.56 UTC
tyyntä
Lämpötila 18°C
Kosteus 83%
Ilmanpaine 1017 hPa
Näkyvyys: 16.1 km
selkeää

METAR: KEEN 160056Z AUTO 00000KT 10SM CLR 18/15 A3004 RMK AO2 SLP175 T01830150 $

Aika: 21:58 (01:58 UTC)


TAF: puuttuu

Säähavainnot ja -ennusteet yli 4000 lentoasemalta (METAR- ja TAF-raportit).

Käytössä olevat sääasemat on merkitty karttaan keltaisilla ja punaisilla pisteillä.

Aseta hiiri pisteen päälle nähdäksesi sääaseman nimen.

Klikkaa sitten nähdäksesi säähavainnot ja -ennusteet.

Kartan vaihtaminen: klikkaa mustalla rastilla varustettuja vihreitä pisteitä, niin voit zoomata sisään; viivalla varustettua vihreää pistettä, niin voit zoomata ulos tai vihreitä nuolia, niin pääset viereisille kartoille.


METAR-TAF: